createdAt,value
2023-02-11T00:02:15.797Z,38.00
2023-02-11T00:04:44.183Z,46.00
2023-02-11T00:07:12.719Z,42.70
2023-02-11T00:09:41.234Z,43.70
2023-02-11T00:12:09.755Z,42.60
2023-02-11T00:14:38.302Z,42.60
2023-02-11T00:17:06.764Z,37.50
2023-02-11T00:19:35.180Z,38.90
2023-02-11T00:22:03.576Z,56.80
2023-02-11T00:24:32.127Z,53.70
2023-02-11T00:27:00.757Z,43.00
2023-02-11T00:29:29.442Z,38.60
2023-02-11T00:31:58.063Z,30.40
2023-02-11T00:34:26.757Z,32.80
2023-02-11T00:36:55.331Z,35.80
2023-02-11T00:39:23.899Z,32.20
2023-02-11T00:41:52.489Z,38.60
2023-02-11T00:44:21.446Z,43.50
2023-02-11T00:46:50.024Z,42.60
2023-02-11T00:49:18.707Z,45.60
2023-02-11T00:51:47.220Z,42.40
2023-02-11T00:54:15.778Z,42.80
2023-02-11T00:56:44.906Z,36.20
2023-02-11T00:59:13.390Z,39.20
2023-02-11T01:01:41.956Z,39.90
2023-02-11T01:04:11.015Z,36.60
2023-02-11T01:06:41.694Z,33.50
2023-02-11T01:09:10.163Z,30.10
2023-02-11T01:11:38.595Z,39.50
2023-02-11T01:14:07.083Z,30.90
2023-02-11T01:16:35.552Z,30.30
2023-02-11T01:19:04.256Z,31.10
2023-02-11T01:21:32.869Z,26.80
2023-02-11T01:24:01.305Z,36.40
2023-02-11T01:26:29.777Z,30.50
2023-02-11T01:29:00.961Z,34.80
2023-02-11T01:31:31.974Z,37.30
2023-02-11T01:34:02.159Z,33.10
2023-02-11T01:36:31.009Z,36.50
2023-02-11T01:39:01.893Z,33.50
2023-02-11T01:41:31.001Z,28.00
2023-02-11T01:43:59.562Z,32.60
2023-02-11T01:46:39.136Z,34.70
2023-02-11T01:49:17.988Z,36.50
2023-02-11T01:52:03.918Z,32.90
2023-02-11T01:54:56.789Z,35.80
2023-02-11T01:57:31.297Z,31.40
2023-02-11T02:00:20.472Z,29.10
2023-02-11T02:03:06.224Z,36.30
2023-02-11T02:05:58.058Z,28.30
2023-02-11T02:08:44.121Z,27.10
2023-02-11T02:11:13.063Z,33.80
2023-02-11T02:13:42.761Z,37.00
2023-02-11T02:16:18.109Z,32.20
2023-02-11T02:18:58.844Z,32.50
2023-02-11T02:21:59.561Z,32.70
2023-02-11T02:24:38.224Z,30.90
2023-02-11T02:27:17.468Z,29.10
2023-02-11T02:30:20.367Z,26.10
2023-02-11T02:33:05.785Z,21.70
2023-02-11T02:36:03.050Z,25.60
2023-02-11T02:38:46.527Z,31.00
2023-02-11T02:41:24.035Z,33.90
2023-02-11T02:43:52.932Z,22.10
2023-02-11T02:46:24.352Z,26.20
2023-02-11T02:48:54.691Z,30.00
2023-02-11T02:52:00.855Z,27.80
2023-02-11T02:55:02.918Z,26.20
2023-02-11T02:57:53.324Z,26.90
2023-02-11T03:00:44.667Z,26.50
2023-02-11T03:04:12.371Z,30.30
2023-02-11T03:06:56.900Z,29.10
2023-02-11T03:09:50.909Z,28.70
2023-02-11T03:12:21.125Z,27.40
2023-02-11T03:14:52.091Z,25.60
2023-02-11T03:17:22.224Z,28.40
2023-02-11T03:19:52.039Z,25.30
2023-02-11T03:22:32.828Z,30.80
2023-02-11T03:25:03.013Z,27.70
2023-02-11T03:27:50.194Z,28.20
2023-02-11T03:30:35.332Z,25.40
2023-02-11T03:33:14.456Z,28.70
2023-02-11T03:36:08.130Z,28.90
2023-02-11T03:38:46.172Z,29.30
2023-02-11T03:41:18.260Z,28.10
2023-02-11T03:43:53.417Z,26.80
2023-02-11T03:46:31.441Z,26.80
2023-02-11T03:49:09.548Z,28.30
2023-02-11T03:51:39.250Z,28.00
2023-02-11T03:54:18.309Z,26.40
2023-02-11T03:56:55.479Z,26.60
2023-02-11T03:59:24.065Z,25.40
2023-02-11T04:01:53.121Z,24.80
2023-02-11T04:04:21.772Z,24.90
2023-02-11T04:06:50.322Z,22.50
2023-02-11T04:09:18.767Z,19.50
2023-02-11T04:11:47.209Z,22.70
2023-02-11T04:14:15.624Z,19.60
2023-02-11T04:16:44.174Z,18.90
2023-02-11T04:19:12.698Z,24.00
2023-02-11T04:21:41.225Z,22.70
2023-02-11T04:24:09.804Z,18.80
2023-02-11T04:26:38.239Z,21.10
2023-02-11T04:29:06.956Z,22.10
2023-02-11T04:31:35.553Z,27.20
2023-02-11T04:34:04.140Z,27.90
2023-02-11T04:36:32.722Z,26.10
2023-02-11T04:39:01.276Z,26.00
2023-02-11T04:41:29.891Z,25.30
2023-02-11T04:43:58.505Z,24.20
2023-02-11T04:46:27.121Z,25.50
2023-02-11T04:48:57.201Z,24.30
2023-02-11T04:51:26.080Z,23.90
2023-02-11T04:53:54.685Z,23.50
2023-02-11T04:56:23.242Z,23.00
2023-02-11T04:58:51.673Z,22.30
2023-02-11T05:01:20.274Z,24.20
2023-02-11T05:03:49.352Z,23.60
2023-02-11T05:06:18.791Z,24.60
2023-02-11T05:08:47.513Z,19.00
2023-02-11T05:11:21.714Z,26.90
2023-02-11T05:13:50.471Z,26.30
2023-02-11T05:16:19.522Z,27.30
2023-02-11T05:18:49.686Z,29.30
2023-02-11T05:21:20.087Z,25.20
2023-02-11T05:23:49.274Z,26.90
2023-02-11T05:26:18.763Z,26.40
2023-02-11T05:28:49.791Z,32.90
2023-02-11T05:31:18.720Z,29.80
2023-02-11T05:33:47.541Z,29.20
2023-02-11T05:36:16.975Z,24.20
2023-02-11T05:38:45.648Z,28.70
2023-02-11T05:41:15.135Z,27.20
2023-02-11T05:43:43.674Z,30.50
2023-02-11T05:46:12.338Z,31.60
2023-02-11T05:48:40.916Z,33.40
2023-02-11T05:51:09.504Z,27.40
2023-02-11T05:53:38.014Z,29.80
2023-02-11T05:56:07.133Z,30.20
2023-02-11T05:58:35.774Z,29.70
2023-02-11T06:01:04.585Z,29.20
2023-02-11T06:03:33.241Z,31.60
2023-02-11T06:06:01.783Z,32.30
2023-02-11T06:08:30.412Z,33.20
2023-02-11T06:10:58.970Z,32.50
2023-02-11T06:13:27.500Z,32.20
2023-02-11T06:15:58.445Z,31.40
2023-02-11T06:18:27.557Z,32.70
2023-02-11T06:20:56.463Z,32.30
2023-02-11T06:23:24.987Z,41.40
2023-02-11T06:25:53.971Z,31.50
2023-02-11T06:28:22.819Z,32.50
2023-02-11T06:30:51.490Z,28.70
2023-02-11T06:33:20.118Z,31.90
2023-02-11T06:35:48.913Z,35.60
2023-02-11T06:38:17.689Z,32.30
2023-02-11T06:40:49.923Z,32.00
2023-02-11T06:43:18.628Z,35.40
2023-02-11T06:45:54.453Z,33.40
2023-02-11T06:48:24.319Z,34.60
2023-02-11T06:50:52.860Z,33.40
2023-02-11T06:53:21.280Z,35.10
2023-02-11T06:55:50.132Z,34.50
2023-02-11T06:58:18.964Z,35.80
2023-02-11T07:00:47.719Z,36.40
2023-02-11T07:03:16.368Z,33.90
2023-02-11T07:05:45.191Z,33.80
2023-02-11T07:08:14.114Z,36.50
2023-02-11T07:10:42.920Z,27.30
2023-02-11T07:13:11.519Z,35.10
2023-02-11T07:15:40.101Z,36.20
2023-02-11T07:18:08.834Z,40.60
2023-02-11T07:20:39.097Z,38.80
2023-02-11T07:23:07.649Z,40.20
2023-02-11T07:25:37.405Z,40.30
2023-02-11T07:28:06.149Z,41.20
2023-02-11T07:30:34.666Z,40.90
2023-02-11T07:33:03.173Z,42.10
2023-02-11T07:35:31.870Z,41.10
2023-02-11T07:38:00.542Z,42.50
2023-02-11T07:40:29.163Z,41.40
2023-02-11T07:42:57.784Z,41.20
2023-02-11T07:45:26.345Z,41.80
2023-02-11T07:47:54.893Z,39.60
2023-02-11T07:50:23.479Z,33.20
2023-02-11T07:52:52.101Z,40.10
2023-02-11T07:55:20.658Z,38.50
2023-02-11T07:57:49.566Z,39.50
2023-02-11T08:00:20.814Z,37.70
2023-02-11T08:02:49.705Z,32.60
2023-02-11T08:05:18.510Z,36.90
2023-02-11T08:07:47.233Z,42.60
2023-02-11T08:10:15.953Z,41.00
2023-02-11T08:12:44.523Z,41.20
2023-02-11T08:15:13.124Z,38.20
2023-02-11T08:17:41.618Z,39.20
2023-02-11T08:20:10.753Z,36.30
2023-02-11T08:22:39.352Z,32.20
2023-02-11T08:25:08.436Z,29.50
2023-02-11T08:27:36.973Z,25.60
2023-02-11T08:30:06.573Z,25.30
2023-02-11T08:32:35.851Z,23.30
2023-02-11T08:35:05.133Z,23.50
2023-02-11T08:37:34.215Z,23.20
2023-02-11T08:40:02.736Z,23.60
2023-02-11T08:42:31.289Z,24.50
2023-02-11T08:44:59.748Z,24.00
2023-02-11T08:47:28.248Z,20.00
2023-02-11T08:49:56.754Z,25.80
2023-02-11T08:52:25.177Z,27.50
2023-02-11T08:54:53.797Z,22.50
2023-02-11T08:57:22.525Z,21.70
2023-02-11T08:59:51.040Z,19.50
2023-02-11T09:02:19.629Z,19.50
2023-02-11T09:04:48.280Z,18.60
2023-02-11T09:07:16.837Z,16.70
2023-02-11T09:09:45.444Z,17.30
2023-02-11T09:12:14.042Z,18.50
2023-02-11T09:14:43.261Z,16.80
2023-02-11T09:17:11.880Z,17.70
2023-02-11T09:19:40.476Z,19.50
2023-02-11T09:22:09.003Z,80.30
2023-02-11T09:24:37.611Z,20.80
2023-02-11T09:27:06.435Z,19.20
2023-02-11T09:29:35.573Z,16.90
2023-02-11T09:32:04.488Z,16.10
2023-02-11T09:34:33.133Z,16.00
2023-02-11T09:37:02.038Z,16.60
2023-02-11T09:39:30.733Z,16.30
2023-02-11T09:42:26.421Z,17.10
2023-02-11T09:44:54.912Z,16.10
2023-02-11T09:47:34.630Z,14.90
2023-02-11T09:50:23.396Z,14.60
2023-02-11T09:53:15.297Z,15.70
2023-02-11T09:55:48.456Z,15.40
2023-02-11T09:58:32.290Z,15.50
2023-02-11T10:01:02.022Z,15.80
2023-02-11T10:04:22.488Z,14.90
2023-02-11T10:07:12.684Z,12.80
2023-02-11T10:10:11.518Z,14.40
2023-02-11T10:13:14.079Z,16.70
2023-02-11T10:16:08.713Z,14.90
2023-02-11T10:19:08.837Z,12.30
2023-02-11T10:21:52.990Z,12.00
2023-02-11T10:24:22.299Z,12.80
2023-02-11T10:26:52.311Z,12.20
2023-02-11T10:29:38.917Z,11.90
2023-02-11T10:32:31.853Z,14.90
2023-02-11T10:35:10.739Z,15.90
2023-02-11T10:37:39.321Z,14.20
2023-02-11T10:40:23.921Z,13.80
2023-02-11T10:42:57.792Z,12.10
2023-02-11T10:45:48.972Z,12.50
2023-02-11T10:48:37.528Z,16.50
2023-02-11T10:51:14.601Z,16.20
2023-02-11T10:53:43.890Z,15.90
2023-02-11T10:56:24.757Z,15.60
2023-02-11T10:59:05.413Z,15.80
2023-02-11T11:02:21.760Z,14.40
2023-02-11T11:04:55.888Z,14.10
2023-02-11T11:07:33.262Z,15.60
2023-02-11T11:10:05.768Z,14.20
2023-02-11T11:12:48.995Z,13.70
2023-02-11T11:15:21.915Z,12.80
2023-02-11T11:18:20.920Z,14.60
2023-02-11T11:21:00.210Z,17.20
2023-02-11T11:23:32.361Z,16.20
2023-02-11T11:26:13.181Z,16.10
2023-02-11T11:29:10.820Z,14.10
2023-02-11T11:32:04.557Z,14.70
2023-02-11T11:34:42.062Z,15.90
2023-02-11T11:37:25.096Z,15.30
2023-02-11T11:40:16.938Z,13.60
2023-02-11T11:42:45.611Z,14.70
2023-02-11T11:45:19.910Z,15.20
2023-02-11T11:48:25.415Z,16.20
2023-02-11T11:51:01.507Z,14.70
2023-02-11T11:53:57.755Z,14.10
2023-02-11T11:56:34.193Z,13.10
2023-02-11T11:59:16.735Z,14.50
2023-02-11T12:02:08.589Z,12.40
2023-02-11T12:05:11.017Z,10.60
2023-02-11T12:08:21.484Z,12.80
2023-02-11T12:11:50.368Z,12.10
2023-02-11T12:14:44.458Z,12.20
2023-02-11T12:18:06.946Z,11.00
2023-02-11T12:21:00.006Z,12.40
2023-02-11T12:23:42.550Z,12.40
2023-02-11T12:26:19.846Z,11.00
2023-02-11T12:29:12.876Z,11.30
2023-02-11T12:35:24.186Z,11.40
2023-02-11T12:38:08.584Z,10.10
2023-02-11T12:41:14.774Z,11.50
2023-02-11T12:43:45.203Z,11.60
2023-02-11T12:46:50.681Z,9.80
2023-02-11T12:49:38.891Z,9.60
2023-02-11T12:52:45.129Z,10.70
2023-02-11T12:55:30.528Z,10.30
2023-02-11T12:58:01.952Z,11.60
2023-02-11T13:01:02.172Z,11.30
2023-02-11T13:03:39.403Z,11.60
2023-02-11T13:06:37.073Z,11.70
2023-02-11T13:09:13.223Z,11.60
2023-02-11T13:11:52.212Z,11.80
2023-02-11T13:14:32.774Z,11.80
2023-02-11T13:17:04.139Z,11.30
2023-02-11T13:19:43.818Z,11.10
2023-02-11T13:22:19.854Z,12.40
2023-02-11T13:25:18.108Z,13.30
2023-02-11T13:28:38.916Z,8.10
2023-02-11T13:31:09.498Z,12.50
2023-02-11T13:33:46.271Z,13.30
2023-02-11T13:36:22.678Z,12.70
2023-02-11T13:38:58.760Z,13.00
2023-02-11T13:41:34.092Z,13.30
2023-02-11T13:44:10.999Z,12.70
2023-02-11T13:47:02.989Z,12.40
2023-02-11T13:49:49.755Z,14.50
2023-02-11T13:52:37.869Z,14.40
2023-02-11T13:55:21.844Z,13.90
2023-02-11T13:58:17.601Z,12.20
2023-02-11T14:00:51.290Z,12.40
2023-02-11T14:03:38.496Z,12.80
2023-02-11T14:06:29.051Z,13.30
2023-02-11T14:09:09.959Z,14.00
2023-02-11T14:11:41.981Z,12.90
2023-02-11T14:14:24.444Z,11.80
2023-02-11T14:16:59.163Z,14.20
2023-02-11T14:19:44.898Z,12.00
2023-02-11T14:22:40.546Z,14.00
2023-02-11T14:25:25.551Z,13.10
2023-02-11T14:28:28.410Z,12.50
2023-02-11T14:31:11.149Z,12.50
2023-02-11T14:34:07.716Z,13.40
2023-02-11T14:36:58.776Z,13.50
2023-02-11T14:39:58.650Z,13.70
2023-02-11T14:42:31.033Z,16.10
2023-02-11T14:45:13.678Z,13.30
2023-02-11T14:47:53.250Z,13.80
2023-02-11T14:50:35.046Z,12.10
2023-02-11T14:53:06.476Z,12.80
2023-02-11T14:55:41.215Z,13.70
2023-02-11T14:58:27.819Z,13.50
2023-02-11T15:01:27.158Z,12.40
2023-02-11T15:04:03.731Z,12.60
2023-02-11T15:07:05.612Z,12.90
2023-02-11T15:09:51.175Z,11.70
2023-02-11T15:12:27.264Z,12.50
2023-02-11T15:15:01.275Z,12.40
2023-02-11T15:17:33.047Z,14.30
2023-02-11T15:20:03.194Z,12.40
2023-02-11T15:22:37.140Z,12.30
2023-02-11T15:25:16.440Z,12.60
2023-02-11T15:27:49.872Z,12.40
2023-02-11T15:30:23.411Z,14.10
2023-02-11T15:33:00.177Z,14.10
2023-02-11T15:35:37.400Z,16.60
2023-02-11T15:38:13.038Z,11.40
2023-02-11T15:41:00.914Z,13.50
2023-02-11T15:43:51.173Z,13.00
2023-02-11T15:46:26.705Z,14.20
2023-02-11T15:49:00.940Z,15.70
2023-02-11T15:51:54.704Z,20.00
2023-02-11T15:54:31.861Z,20.80
2023-02-11T15:57:07.619Z,18.10
2023-02-11T15:59:49.323Z,20.10
2023-02-11T16:02:34.721Z,18.40
2023-02-11T16:05:09.677Z,17.40
2023-02-11T16:07:50.916Z,18.80
2023-02-11T16:10:25.571Z,18.50
2023-02-11T16:13:13.502Z,19.00
2023-02-11T16:15:43.594Z,21.70
2023-02-11T16:18:37.760Z,19.50
2023-02-11T16:21:17.064Z,15.60
2023-02-11T16:23:57.422Z,21.50
2023-02-11T16:26:48.104Z,17.60
2023-02-11T16:29:24.720Z,20.30
2023-02-11T16:31:55.295Z,20.70
2023-02-11T16:34:26.612Z,22.20
2023-02-11T16:36:56.106Z,22.30
2023-02-11T16:39:24.950Z,22.80
2023-02-11T16:41:55.813Z,22.00
2023-02-11T16:44:27.197Z,19.30
2023-02-11T16:47:04.599Z,21.00
2023-02-11T16:49:43.485Z,19.30
2023-02-11T16:52:17.025Z,21.90
2023-02-11T16:54:46.664Z,24.40
2023-02-11T16:57:21.807Z,39.40
2023-02-11T16:59:52.113Z,29.50
2023-02-11T17:02:25.796Z,26.50
2023-02-11T17:04:58.148Z,27.90
2023-02-11T17:07:27.611Z,25.00
2023-02-11T17:09:56.760Z,24.20
2023-02-11T17:12:25.872Z,25.60
2023-02-11T17:14:55.062Z,25.70
2023-02-11T17:17:24.227Z,23.60
2023-02-11T17:19:59.031Z,24.00
2023-02-11T17:22:30.913Z,24.50
2023-02-11T17:25:00.178Z,23.60
2023-02-11T17:27:28.909Z,23.30
2023-02-11T17:29:57.902Z,20.90
2023-02-11T17:32:26.990Z,21.80
2023-02-11T17:34:56.407Z,28.20
2023-02-11T17:37:26.127Z,19.80
2023-02-11T17:39:55.173Z,22.60
2023-02-11T17:42:23.733Z,25.40
2023-02-11T17:44:52.856Z,21.50
2023-02-11T17:47:21.896Z,23.50
2023-02-11T17:49:51.114Z,25.90
2023-02-11T17:52:21.950Z,26.50
2023-02-11T17:54:51.587Z,25.80
2023-02-11T17:57:21.172Z,24.80
2023-02-11T17:59:50.661Z,25.20
2023-02-11T18:02:22.093Z,21.80
2023-02-11T18:04:52.541Z,20.80
2023-02-11T18:07:21.410Z,23.20
2023-02-11T18:09:50.497Z,26.20
2023-02-11T18:12:26.807Z,26.20
2023-02-11T18:14:58.022Z,29.70
2023-02-11T18:17:27.017Z,37.50
2023-02-11T18:19:57.656Z,39.00
2023-02-11T18:22:26.760Z,38.00
2023-02-11T18:25:05.968Z,40.30
2023-02-11T18:27:37.740Z,40.30
2023-02-11T18:30:20.035Z,40.00
2023-02-11T18:32:55.771Z,37.50
2023-02-11T18:35:27.142Z,39.00
2023-02-11T18:37:55.696Z,40.50
2023-02-11T18:40:25.136Z,40.00
2023-02-11T18:42:54.059Z,42.80
2023-02-11T18:45:24.104Z,41.40
2023-02-11T18:47:52.888Z,42.90
2023-02-11T18:50:24.549Z,41.50
2023-02-11T18:52:53.812Z,40.30
2023-02-11T18:55:26.055Z,44.90
2023-02-11T18:57:55.986Z,39.40
2023-02-11T19:00:27.141Z,41.90
2023-02-11T19:02:56.908Z,35.00
2023-02-11T19:05:29.263Z,33.80
2023-02-11T19:07:57.958Z,32.00
2023-02-11T19:10:34.218Z,33.40
2023-02-11T19:13:05.339Z,40.00
2023-02-11T19:15:34.203Z,32.90
2023-02-11T19:18:03.189Z,36.00
2023-02-11T19:20:34.072Z,34.00
2023-02-11T19:23:02.938Z,33.80
2023-02-11T19:25:34.147Z,32.90
2023-02-11T19:28:04.817Z,24.60
2023-02-11T19:30:36.947Z,29.60
2023-02-11T19:33:08.288Z,27.80
2023-02-11T19:35:39.496Z,26.30
2023-02-11T19:38:13.528Z,35.20
2023-02-11T19:40:46.038Z,35.10
2023-02-11T19:43:17.550Z,34.50
2023-02-11T19:45:47.883Z,33.00
2023-02-11T19:48:17.118Z,35.00
2023-02-11T19:50:50.959Z,32.80
2023-02-11T19:53:21.516Z,36.10
2023-02-11T19:55:52.986Z,38.80
2023-02-11T19:58:25.514Z,38.60
2023-02-11T20:01:01.527Z,26.40
2023-02-11T20:03:33.368Z,27.70
2023-02-11T20:06:17.535Z,30.10
2023-02-11T20:08:47.326Z,31.60
2023-02-11T20:11:18.613Z,31.90
2023-02-11T20:13:52.879Z,32.30
2023-02-11T20:16:44.715Z,31.80
2023-02-11T20:19:20.139Z,31.90
2023-02-11T20:21:51.993Z,39.90
2023-02-11T20:24:22.123Z,40.40
2023-02-11T20:26:55.893Z,37.90
2023-02-11T20:29:27.871Z,36.20
2023-02-11T20:32:00.464Z,33.90
2023-02-11T20:34:30.725Z,34.40
2023-02-11T20:36:59.856Z,35.30
2023-02-11T20:39:30.356Z,34.10
2023-02-11T20:41:58.869Z,33.80
2023-02-11T20:44:27.794Z,33.40
2023-02-11T20:46:56.492Z,34.80
2023-02-11T20:49:26.761Z,33.10
2023-02-11T20:51:56.900Z,33.20
2023-02-11T20:54:28.677Z,31.30
2023-02-11T20:56:58.444Z,34.40
2023-02-11T20:59:29.505Z,34.20
2023-02-11T21:01:58.328Z,32.00
2023-02-11T21:04:30.566Z,26.70
2023-02-11T21:07:02.057Z,30.30
2023-02-11T21:09:33.416Z,28.50
2023-02-11T21:12:02.680Z,29.60
2023-02-11T21:14:31.658Z,30.20
2023-02-11T21:17:00.848Z,33.90
2023-02-11T21:19:30.056Z,33.30
2023-02-11T21:22:00.794Z,33.20
2023-02-11T21:24:31.009Z,29.50
2023-02-11T21:26:59.855Z,26.90
2023-02-11T21:29:28.715Z,29.40
2023-02-11T21:31:57.284Z,28.70
2023-02-11T21:34:26.147Z,28.40
2023-02-11T21:36:54.896Z,21.10
2023-02-11T21:39:23.814Z,27.90
2023-02-11T21:41:52.619Z,31.20
2023-02-11T21:44:21.072Z,31.00
2023-02-11T21:46:50.128Z,28.80
2023-02-11T21:49:20.306Z,26.60
2023-02-11T21:53:59.877Z,27.00
2023-02-11T21:56:31.397Z,23.30
2023-02-11T21:59:01.202Z,26.50
2023-02-11T22:01:33.935Z,25.80
2023-02-11T22:04:03.481Z,27.80
2023-02-11T22:06:39.824Z,27.00
2023-02-11T22:09:11.272Z,28.90
2023-02-11T22:11:39.866Z,28.10
2023-02-11T22:14:08.456Z,27.90
2023-02-11T22:16:37.200Z,19.10
2023-02-11T22:19:07.705Z,25.40
2023-02-11T22:21:36.362Z,22.10
2023-02-11T22:24:05.946Z,24.70
2023-02-11T22:26:34.501Z,27.30
2023-02-11T22:29:03.171Z,25.50
2023-02-11T22:31:35.262Z,21.20
2023-02-11T22:34:05.016Z,20.90
2023-02-11T22:36:38.273Z,20.80
2023-02-11T22:39:18.023Z,19.10
2023-02-11T22:41:47.943Z,19.20
2023-02-11T22:44:17.577Z,19.40
2023-02-11T22:46:46.509Z,18.10
2023-02-11T22:49:16.882Z,19.40
2023-02-11T22:51:46.978Z,16.90
2023-02-11T22:54:18.899Z,20.30
2023-02-11T22:56:51.418Z,19.90
2023-02-11T22:59:20.893Z,18.50
2023-02-11T23:01:49.706Z,18.90
2023-02-11T23:04:19.417Z,17.50
2023-02-11T23:06:48.097Z,17.90
2023-02-11T23:09:16.876Z,18.80
2023-02-11T23:11:45.510Z,19.90
2023-02-11T23:14:14.148Z,18.70
2023-02-11T23:16:42.980Z,17.60
2023-02-11T23:19:12.568Z,15.90
2023-02-11T23:21:41.308Z,16.60
2023-02-11T23:24:15.048Z,16.60
2023-02-11T23:26:44.647Z,17.60
2023-02-11T23:29:14.060Z,16.90
2023-02-11T23:31:46.648Z,18.10
2023-02-11T23:34:17.365Z,17.70
2023-02-11T23:36:46.003Z,18.20
2023-02-11T23:39:16.192Z,18.10
2023-02-11T23:41:45.980Z,15.80
2023-02-11T23:44:14.619Z,17.20
2023-02-11T23:46:43.177Z,16.40
2023-02-11T23:49:11.745Z,18.00
2023-02-11T23:51:40.263Z,19.70
2023-02-11T23:54:13.257Z,18.40
2023-02-11T23:56:44.895Z,17.60
2023-02-11T23:59:14.162Z,16.30
